sensor_id;sensor_type;location;lat;lon;timestamp;P1;durP1;ratioP1;P2;durP2;ratioP2
16246;SDS011;8231;50.866;7.944;2022-09-02T00:00:58;2.95;;;2.00;;
16246;SDS011;8231;50.866;7.944;2022-09-02T00:03:28;2.28;;;1.92;;
16246;SDS011;8231;50.866;7.944;2022-09-02T00:06:00;3.00;;;2.13;;
16246;SDS011;8231;50.866;7.944;2022-09-02T00:08:29;3.25;;;2.30;;
16246;SDS011;8231;50.866;7.944;2022-09-02T00:10:59;2.63;;;1.90;;
16246;SDS011;8231;50.866;7.944;2022-09-02T00:13:29;1.58;;;1.48;;
16246;SDS011;8231;50.866;7.944;2022-09-02T00:15:57;5.28;;;1.65;;
16246;SDS011;8231;50.866;7.944;2022-09-02T00:18:25;2.17;;;1.60;;
16246;SDS011;8231;50.866;7.944;2022-09-02T00:20:53;2.40;;;1.77;;
16246;SDS011;8231;50.866;7.944;2022-09-02T00:23:23;3.85;;;1.73;;
16246;SDS011;8231;50.866;7.944;2022-09-02T00:25:52;2.05;;;1.40;;
16246;SDS011;8231;50.866;7.944;2022-09-02T00:28:20;2.00;;;1.70;;
16246;SDS011;8231;50.866;7.944;2022-09-02T00:30:49;1.50;;;1.40;;
16246;SDS011;8231;50.866;7.944;2022-09-02T00:33:18;1.45;;;1.20;;
16246;SDS011;8231;50.866;7.944;2022-09-02T00:35:46;1.73;;;1.50;;
16246;SDS011;8231;50.866;7.944;2022-09-02T00:38:15;3.75;;;1.50;;
16246;SDS011;8231;50.866;7.944;2022-09-02T00:40:46;1.58;;;1.40;;
16246;SDS011;8231;50.866;7.944;2022-09-02T00:43:23;3.95;;;1.60;;
16246;SDS011;8231;50.866;7.944;2022-09-02T00:46:04;2.30;;;1.33;;
16246;SDS011;8231;50.866;7.944;2022-09-02T00:48:34;2.35;;;1.52;;
16246;SDS011;8231;50.866;7.944;2022-09-02T00:51:06;1.60;;;1.50;;
16246;SDS011;8231;50.866;7.944;2022-09-02T00:53:35;2.47;;;1.52;;
16246;SDS011;8231;50.866;7.944;2022-09-02T00:56:10;1.80;;;1.65;;
16246;SDS011;8231;50.866;7.944;2022-09-02T00:58:44;2.15;;;1.40;;
16246;SDS011;8231;50.866;7.944;2022-09-02T01:01:13;1.55;;;1.42;;
16246;SDS011;8231;50.866;7.944;2022-09-02T01:03:42;2.25;;;1.63;;
16246;SDS011;8231;50.866;7.944;2022-09-02T01:06:10;1.45;;;1.27;;
16246;SDS011;8231;50.866;7.944;2022-09-02T01:08:42;1.98;;;1.60;;
16246;SDS011;8231;50.866;7.944;2022-09-02T01:11:16;2.33;;;1.45;;
16246;SDS011;8231;50.866;7.944;2022-09-02T01:13:46;2.88;;;1.38;;
16246;SDS011;8231;50.866;7.944;2022-09-02T01:16:16;1.88;;;1.52;;
16246;SDS011;8231;50.866;7.944;2022-09-02T01:18:51;2.25;;;1.58;;
16246;SDS011;8231;50.866;7.944;2022-09-02T01:21:21;1.95;;;1.80;;
16246;SDS011;8231;50.866;7.944;2022-09-02T01:23:52;2.55;;;1.35;;
16246;SDS011;8231;50.866;7.944;2022-09-02T01:26:22;9.10;;;1.67;;
16246;SDS011;8231;50.866;7.944;2022-09-02T01:28:51;3.22;;;1.55;;
16246;SDS011;8231;50.866;7.944;2022-09-02T01:31:19;2.63;;;1.50;;
16246;SDS011;8231;50.866;7.944;2022-09-02T01:33:48;1.80;;;1.40;;
16246;SDS011;8231;50.866;7.944;2022-09-02T01:36:19;1.58;;;1.48;;
16246;SDS011;8231;50.866;7.944;2022-09-02T01:38:48;2.13;;;1.63;;
16246;SDS011;8231;50.866;7.944;2022-09-02T01:41:18;2.15;;;1.52;;
16246;SDS011;8231;50.866;7.944;2022-09-02T01:43:46;5.43;;;1.77;;
16246;SDS011;8231;50.866;7.944;2022-09-02T01:46:14;2.97;;;1.73;;
16246;SDS011;8231;50.866;7.944;2022-09-02T01:48:43;2.53;;;2.13;;
16246;SDS011;8231;50.866;7.944;2022-09-02T01:51:13;2.40;;;1.60;;
16246;SDS011;8231;50.866;7.944;2022-09-02T01:53:44;3.28;;;2.00;;
16246;SDS011;8231;50.866;7.944;2022-09-02T01:56:14;3.08;;;2.38;;
16246;SDS011;8231;50.866;7.944;2022-09-02T01:58:43;3.40;;;2.03;;
16246;SDS011;8231;50.866;7.944;2022-09-02T02:01:12;2.45;;;1.50;;
16246;SDS011;8231;50.866;7.944;2022-09-02T02:03:43;5.03;;;1.80;;
16246;SDS011;8231;50.866;7.944;2022-09-02T02:06:13;3.75;;;1.88;;
16246;SDS011;8231;50.866;7.944;2022-09-02T02:08:43;2.13;;;1.70;;
16246;SDS011;8231;50.866;7.944;2022-09-02T02:11:17;2.50;;;1.80;;
16246;SDS011;8231;50.866;7.944;2022-09-02T02:13:50;3.92;;;1.73;;
16246;SDS011;8231;50.866;7.944;2022-09-02T02:16:20;2.08;;;1.52;;
16246;SDS011;8231;50.866;7.944;2022-09-02T02:18:48;2.08;;;1.77;;
16246;SDS011;8231;50.866;7.944;2022-09-02T02:21:18;2.63;;;1.48;;
16246;SDS011;8231;50.866;7.944;2022-09-02T02:23:46;2.10;;;1.65;;
16246;SDS011;8231;50.866;7.944;2022-09-02T02:26:15;2.92;;;1.90;;
16246;SDS011;8231;50.866;7.944;2022-09-02T02:28:46;2.30;;;1.98;;
16246;SDS011;8231;50.866;7.944;2022-09-02T02:31:16;4.10;;;2.13;;
16246;SDS011;8231;50.866;7.944;2022-09-02T02:33:45;1.90;;;1.75;;
16246;SDS011;8231;50.866;7.944;2022-09-02T02:36:13;2.10;;;1.90;;
16246;SDS011;8231;50.866;7.944;2022-09-02T02:38:42;4.85;;;2.00;;
16246;SDS011;8231;50.866;7.944;2022-09-02T02:41:11;2.72;;;1.77;;
16246;SDS011;8231;50.866;7.944;2022-09-02T02:43:40;2.13;;;1.92;;
16246;SDS011;8231;50.866;7.944;2022-09-02T02:46:10;1.98;;;1.77;;
16246;SDS011;8231;50.866;7.944;2022-09-02T02:48:40;1.60;;;1.50;;
16246;SDS011;8231;50.866;7.944;2022-09-02T02:51:09;2.13;;;1.92;;
16246;SDS011;8231;50.866;7.944;2022-09-02T02:53:37;1.70;;;1.40;;
16246;SDS011;8231;50.866;7.944;2022-09-02T02:56:06;2.25;;;1.30;;
16246;SDS011;8231;50.866;7.944;2022-09-02T02:58:35;3.17;;;1.80;;
16246;SDS011;8231;50.866;7.944;2022-09-02T03:01:06;1.83;;;1.38;;
16246;SDS011;8231;50.866;7.944;2022-09-02T03:03:35;2.75;;;1.83;;
16246;SDS011;8231;50.866;7.944;2022-09-02T03:06:05;8.07;;;2.20;;
16246;SDS011;8231;50.866;7.944;2022-09-02T03:08:33;2.70;;;1.88;;
16246;SDS011;8231;50.866;7.944;2022-09-02T03:11:04;1.85;;;1.42;;
16246;SDS011;8231;50.866;7.944;2022-09-02T03:13:36;2.17;;;1.75;;
16246;SDS011;8231;50.866;7.944;2022-09-02T03:16:05;2.10;;;1.90;;
16246;SDS011;8231;50.866;7.944;2022-09-02T03:18:34;3.08;;;1.60;;
16246;SDS011;8231;50.866;7.944;2022-09-02T03:21:06;2.70;;;1.83;;
16246;SDS011;8231;50.866;7.944;2022-09-02T03:23:35;2.75;;;2.15;;
16246;SDS011;8231;50.866;7.944;2022-09-02T03:26:07;1.90;;;1.80;;
16246;SDS011;8231;50.866;7.944;2022-09-02T03:28:38;2.75;;;1.90;;
16246;SDS011;8231;50.866;7.944;2022-09-02T03:31:11;1.95;;;1.77;;
16246;SDS011;8231;50.866;7.944;2022-09-02T03:33:42;3.65;;;2.00;;
16246;SDS011;8231;50.866;7.944;2022-09-02T03:36:18;2.17;;;1.70;;
16246;SDS011;8231;50.866;7.944;2022-09-02T03:38:49;3.22;;;1.83;;
16246;SDS011;8231;50.866;7.944;2022-09-02T03:41:17;2.85;;;1.92;;
16246;SDS011;8231;50.866;7.944;2022-09-02T03:43:46;2.58;;;1.70;;
16246;SDS011;8231;50.866;7.944;2022-09-02T03:46:14;1.75;;;1.65;;
16246;SDS011;8231;50.866;7.944;2022-09-02T03:48:44;3.65;;;1.83;;
16246;SDS011;8231;50.866;7.944;2022-09-02T03:51:12;2.80;;;1.67;;
16246;SDS011;8231;50.866;7.944;2022-09-02T03:53:42;1.80;;;1.50;;
16246;SDS011;8231;50.866;7.944;2022-09-02T03:56:11;1.73;;;1.63;;
16246;SDS011;8231;50.866;7.944;2022-09-02T03:58:42;2.30;;;1.80;;
16246;SDS011;8231;50.866;7.944;2022-09-02T04:01:12;2.33;;;2.00;;
16246;SDS011;8231;50.866;7.944;2022-09-02T04:03:42;1.95;;;1.52;;
16246;SDS011;8231;50.866;7.944;2022-09-02T04:06:12;2.47;;;1.60;;
16246;SDS011;8231;50.866;7.944;2022-09-02T04:08:44;2.78;;;1.85;;
16246;SDS011;8231;50.866;7.944;2022-09-02T04:11:15;2.38;;;2.15;;
16246;SDS011;8231;50.866;7.944;2022-09-02T04:13:48;2.45;;;2.25;;
16246;SDS011;8231;50.866;7.944;2022-09-02T04:16:21;2.45;;;1.85;;
16246;SDS011;8231;50.866;7.944;2022-09-02T04:18:59;4.00;;;2.22;;
16246;SDS011;8231;50.866;7.944;2022-09-02T04:21:30;1.88;;;1.77;;
16246;SDS011;8231;50.866;7.944;2022-09-02T04:24:02;2.20;;;2.00;;
16246;SDS011;8231;50.866;7.944;2022-09-02T04:26:32;4.68;;;2.55;;
16246;SDS011;8231;50.866;7.944;2022-09-02T04:29:02;2.55;;;1.40;;
16246;SDS011;8231;50.866;7.944;2022-09-02T04:31:33;1.70;;;1.60;;
16246;SDS011;8231;50.866;7.944;2022-09-02T04:34:03;1.75;;;1.65;;
16246;SDS011;8231;50.866;7.944;2022-09-02T04:36:32;3.47;;;1.63;;
16246;SDS011;8231;50.866;7.944;2022-09-02T04:39:06;2.15;;;1.77;;
16246;SDS011;8231;50.866;7.944;2022-09-02T04:41:36;2.17;;;1.63;;
16246;SDS011;8231;50.866;7.944;2022-09-02T04:44:07;1.67;;;1.58;;
16246;SDS011;8231;50.866;7.944;2022-09-02T04:46:39;3.03;;;2.00;;
16246;SDS011;8231;50.866;7.944;2022-09-02T04:49:12;8.23;;;2.20;;
16246;SDS011;8231;50.866;7.944;2022-09-02T04:51:42;2.08;;;1.85;;
16246;SDS011;8231;50.866;7.944;2022-09-02T04:54:12;2.03;;;1.83;;
16246;SDS011;8231;50.866;7.944;2022-09-02T04:56:44;2.65;;;1.83;;
16246;SDS011;8231;50.866;7.944;2022-09-02T05:02:09;2.08;;;1.90;;
16246;SDS011;8231;50.866;7.944;2022-09-02T05:04:39;2.90;;;1.85;;
16246;SDS011;8231;50.866;7.944;2022-09-02T05:07:15;2.50;;;1.75;;
16246;SDS011;8231;50.866;7.944;2022-09-02T05:09:47;3.90;;;2.00;;
16246;SDS011;8231;50.866;7.944;2022-09-02T05:12:16;3.50;;;1.85;;
16246;SDS011;8231;50.866;7.944;2022-09-02T05:14:49;1.63;;;1.52;;
16246;SDS011;8231;50.866;7.944;2022-09-02T05:17:20;1.90;;;1.80;;
16246;SDS011;8231;50.866;7.944;2022-09-02T05:19:49;2.05;;;1.75;;
16246;SDS011;8231;50.866;7.944;2022-09-02T05:22:18;1.98;;;1.75;;
16246;SDS011;8231;50.866;7.944;2022-09-02T05:24:48;2.85;;;1.52;;
16246;SDS011;8231;50.866;7.944;2022-09-02T05:27:17;2.53;;;1.80;;
16246;SDS011;8231;50.866;7.944;2022-09-02T05:29:48;3.58;;;2.20;;
16246;SDS011;8231;50.866;7.944;2022-09-02T05:32:18;2.13;;;1.60;;
16246;SDS011;8231;50.866;7.944;2022-09-02T05:34:49;3.65;;;1.77;;
16246;SDS011;8231;50.866;7.944;2022-09-02T05:37:18;2.53;;;1.90;;
16246;SDS011;8231;50.866;7.944;2022-09-02T05:39:49;3.92;;;1.70;;
16246;SDS011;8231;50.866;7.944;2022-09-02T05:42:18;3.75;;;1.67;;
16246;SDS011;8231;50.866;7.944;2022-09-02T05:44:50;2.10;;;1.90;;
16246;SDS011;8231;50.866;7.944;2022-09-02T05:47:21;4.68;;;1.73;;
16246;SDS011;8231;50.866;7.944;2022-09-02T05:49:51;1.50;;;1.40;;
16246;SDS011;8231;50.866;7.944;2022-09-02T05:52:21;2.10;;;1.92;;
16246;SDS011;8231;50.866;7.944;2022-09-02T05:54:53;2.13;;;1.88;;
16246;SDS011;8231;50.866;7.944;2022-09-02T05:57:22;2.00;;;1.80;;
16246;SDS011;8231;50.866;7.944;2022-09-02T06:00:01;4.07;;;1.95;;
16246;SDS011;8231;50.866;7.944;2022-09-02T06:02:43;3.70;;;1.80;;
16246;SDS011;8231;50.866;7.944;2022-09-02T06:05:24;3.28;;;2.35;;
16246;SDS011;8231;50.866;7.944;2022-09-02T06:08:04;1.70;;;1.60;;
16246;SDS011;8231;50.866;7.944;2022-09-02T06:10:36;2.60;;;1.58;;
16246;SDS011;8231;50.866;7.944;2022-09-02T06:13:10;1.88;;;1.50;;
16246;SDS011;8231;50.866;7.944;2022-09-02T06:15:39;2.33;;;1.55;;
16246;SDS011;8231;50.866;7.944;2022-09-02T06:18:10;3.72;;;1.45;;
16246;SDS011;8231;50.866;7.944;2022-09-02T06:20:43;2.75;;;1.38;;
16246;SDS011;8231;50.866;7.944;2022-09-02T06:23:14;3.28;;;1.40;;
16246;SDS011;8231;50.866;7.944;2022-09-02T06:25:46;2.50;;;1.50;;
16246;SDS011;8231;50.866;7.944;2022-09-02T06:28:17;5.43;;;1.45;;
16246;SDS011;8231;50.866;7.944;2022-09-02T06:30:46;1.73;;;1.10;;
16246;SDS011;8231;50.866;7.944;2022-09-02T06:33:20;1.80;;;1.23;;
16246;SDS011;8231;50.866;7.944;2022-09-02T06:35:49;1.50;;;1.13;;
16246;SDS011;8231;50.866;7.944;2022-09-02T06:38:18;1.83;;;1.25;;
16246;SDS011;8231;50.866;7.944;2022-09-02T06:40:51;1.45;;;1.30;;
16246;SDS011;8231;50.866;7.944;2022-09-02T06:43:29;2.13;;;1.65;;
16246;SDS011;8231;50.866;7.944;2022-09-02T06:46:14;2.05;;;1.67;;
16246;SDS011;8231;50.866;7.944;2022-09-02T06:48:46;4.22;;;1.70;;
16246;SDS011;8231;50.866;7.944;2022-09-02T06:51:18;2.55;;;1.45;;
16246;SDS011;8231;50.866;7.944;2022-09-02T06:53:47;1.80;;;1.70;;
16246;SDS011;8231;50.866;7.944;2022-09-02T06:56:18;3.97;;;1.90;;
16246;SDS011;8231;50.866;7.944;2022-09-02T06:58:46;3.80;;;1.95;;
16246;SDS011;8231;50.866;7.944;2022-09-02T07:01:16;2.33;;;1.40;;
16246;SDS011;8231;50.866;7.944;2022-09-02T07:03:46;3.50;;;1.73;;
16246;SDS011;8231;50.866;7.944;2022-09-02T07:06:33;3.55;;;1.90;;
16246;SDS011;8231;50.866;7.944;2022-09-02T07:09:03;3.15;;;1.58;;
16246;SDS011;8231;50.866;7.944;2022-09-02T07:11:34;2.25;;;1.65;;
16246;SDS011;8231;50.866;7.944;2022-09-02T07:14:04;4.95;;;1.75;;
16246;SDS011;8231;50.866;7.944;2022-09-02T07:16:35;2.30;;;1.60;;
16246;SDS011;8231;50.866;7.944;2022-09-02T07:19:08;5.25;;;1.73;;
16246;SDS011;8231;50.866;7.944;2022-09-02T07:21:44;4.40;;;1.70;;
16246;SDS011;8231;50.866;7.944;2022-09-02T07:24:14;3.42;;;1.90;;
16246;SDS011;8231;50.866;7.944;2022-09-02T07:26:45;2.55;;;1.90;;
16246;SDS011;8231;50.866;7.944;2022-09-02T07:29:15;3.10;;;1.83;;
16246;SDS011;8231;50.866;7.944;2022-09-02T07:31:46;5.63;;;1.67;;
16246;SDS011;8231;50.866;7.944;2022-09-02T07:34:17;6.57;;;2.20;;
16246;SDS011;8231;50.866;7.944;2022-09-02T07:36:48;1.85;;;1.55;;
16246;SDS011;8231;50.866;7.944;2022-09-02T07:39:18;3.38;;;1.77;;
16246;SDS011;8231;50.866;7.944;2022-09-02T07:41:49;1.95;;;1.70;;
16246;SDS011;8231;50.866;7.944;2022-09-02T07:44:20;3.17;;;1.85;;
16246;SDS011;8231;50.866;7.944;2022-09-02T07:46:50;2.63;;;1.20;;
16246;SDS011;8231;50.866;7.944;2022-09-02T07:49:19;3.80;;;1.73;;
16246;SDS011;8231;50.866;7.944;2022-09-02T07:51:50;4.13;;;1.92;;
16246;SDS011;8231;50.866;7.944;2022-09-02T07:54:21;4.10;;;1.48;;
16246;SDS011;8231;50.866;7.944;2022-09-02T07:56:53;3.08;;;1.55;;
16246;SDS011;8231;50.866;7.944;2022-09-02T07:59:22;1.70;;;1.30;;
16246;SDS011;8231;50.866;7.944;2022-09-02T08:01:53;3.08;;;1.50;;
16246;SDS011;8231;50.866;7.944;2022-09-02T08:04:22;2.50;;;1.20;;
16246;SDS011;8231;50.866;7.944;2022-09-02T08:06:50;3.67;;;1.80;;
16246;SDS011;8231;50.866;7.944;2022-09-02T08:09:20;1.45;;;1.20;;
16246;SDS011;8231;50.866;7.944;2022-09-02T08:11:49;2.05;;;1.50;;
16246;SDS011;8231;50.866;7.944;2022-09-02T08:14:20;2.20;;;1.40;;
16246;SDS011;8231;50.866;7.944;2022-09-02T08:16:51;1.50;;;1.40;;
16246;SDS011;8231;50.866;7.944;2022-09-02T08:19:21;1.67;;;1.42;;
16246;SDS011;8231;50.866;7.944;2022-09-02T08:21:50;2.33;;;1.80;;
16246;SDS011;8231;50.866;7.944;2022-09-02T08:24:18;1.60;;;1.10;;
16246;SDS011;8231;50.866;7.944;2022-09-02T08:26:47;2.90;;;1.27;;
16246;SDS011;8231;50.866;7.944;2022-09-02T08:29:15;1.77;;;1.25;;
16246;SDS011;8231;50.866;7.944;2022-09-02T08:31:44;1.25;;;1.13;;
16246;SDS011;8231;50.866;7.944;2022-09-02T08:34:16;1.67;;;1.50;;
16246;SDS011;8231;50.866;7.944;2022-09-02T08:36:44;2.15;;;1.20;;
16246;SDS011;8231;50.866;7.944;2022-09-02T08:39:22;2.03;;;1.38;;
16246;SDS011;8231;50.866;7.944;2022-09-02T08:41:52;3.22;;;1.40;;
16246;SDS011;8231;50.866;7.944;2022-09-02T08:44:27;1.27;;;1.15;;
16246;SDS011;8231;50.866;7.944;2022-09-02T08:46:59;1.70;;;1.13;;
16246;SDS011;8231;50.866;7.944;2022-09-02T08:49:29;2.45;;;1.52;;
16246;SDS011;8231;50.866;7.944;2022-09-02T08:52:01;3.63;;;1.40;;
16246;SDS011;8231;50.866;7.944;2022-09-02T08:54:33;1.80;;;1.60;;
16246;SDS011;8231;50.866;7.944;2022-09-02T08:57:08;1.23;;;1.10;;
16246;SDS011;8231;50.866;7.944;2022-09-02T08:59:37;3.50;;;1.38;;
16246;SDS011;8231;50.866;7.944;2022-09-02T09:02:15;2.40;;;1.58;;
16246;SDS011;8231;50.866;7.944;2022-09-02T09:04:56;2.05;;;1.45;;
16246;SDS011;8231;50.866;7.944;2022-09-02T09:07:34;8.15;;;1.40;;
16246;SDS011;8231;50.866;7.944;2022-09-02T09:10:08;3.53;;;1.40;;
16246;SDS011;8231;50.866;7.944;2022-09-02T09:12:48;1.92;;;1.30;;
16246;SDS011;8231;50.866;7.944;2022-09-02T09:15:31;2.50;;;1.33;;
16246;SDS011;8231;50.866;7.944;2022-09-02T09:18:08;2.67;;;1.58;;
16246;SDS011;8231;50.866;7.944;2022-09-02T09:20:42;2.03;;;1.38;;
16246;SDS011;8231;50.866;7.944;2022-09-02T09:23:17;1.35;;;1.25;;
16246;SDS011;8231;50.866;7.944;2022-09-02T09:25:52;1.92;;;1.20;;
16246;SDS011;8231;50.866;7.944;2022-09-02T09:28:23;1.35;;;1.10;;
16246;SDS011;8231;50.866;7.944;2022-09-02T09:30:51;4.45;;;1.67;;
16246;SDS011;8231;50.866;7.944;2022-09-02T09:33:21;4.45;;;1.30;;
16246;SDS011;8231;50.866;7.944;2022-09-02T09:35:50;2.05;;;1.40;;
16246;SDS011;8231;50.866;7.944;2022-09-02T09:38:26;2.53;;;1.15;;
16246;SDS011;8231;50.866;7.944;2022-09-02T09:41:13;1.50;;;1.40;;
16246;SDS011;8231;50.866;7.944;2022-09-02T09:43:43;2.38;;;1.30;;
16246;SDS011;8231;50.866;7.944;2022-09-02T09:46:24;3.38;;;1.80;;
16246;SDS011;8231;50.866;7.944;2022-09-02T09:48:55;1.90;;;1.70;;
16246;SDS011;8231;50.866;7.944;2022-09-02T09:51:23;1.38;;;1.27;;
16246;SDS011;8231;50.866;7.944;2022-09-02T09:53:51;1.38;;;1.27;;
16246;SDS011;8231;50.866;7.944;2022-09-02T09:56:24;2.20;;;1.17;;
16246;SDS011;8231;50.866;7.944;2022-09-02T09:58:55;2.25;;;1.55;;
16246;SDS011;8231;50.866;7.944;2022-09-02T10:01:25;1.83;;;1.15;;
16246;SDS011;8231;50.866;7.944;2022-09-02T10:03:57;2.72;;;1.40;;
16246;SDS011;8231;50.866;7.944;2022-09-02T10:06:35;1.50;;;1.27;;
16246;SDS011;8231;50.866;7.944;2022-09-02T10:09:05;2.53;;;1.35;;
16246;SDS011;8231;50.866;7.944;2022-09-02T10:11:53;1.90;;;1.20;;
16246;SDS011;8231;50.866;7.944;2022-09-02T10:14:23;3.22;;;1.25;;
16246;SDS011;8231;50.866;7.944;2022-09-02T10:16:57;2.60;;;1.35;;
16246;SDS011;8231;50.866;7.944;2022-09-02T10:19:35;1.88;;;1.40;;
16246;SDS011;8231;50.866;7.944;2022-09-02T10:22:21;1.95;;;1.50;;
16246;SDS011;8231;50.866;7.944;2022-09-02T10:25:28;5.47;;;1.15;;
16246;SDS011;8231;50.866;7.944;2022-09-02T10:28:06;1.60;;;1.30;;
16246;SDS011;8231;50.866;7.944;2022-09-02T10:30:43;1.55;;;1.30;;
16246;SDS011;8231;50.866;7.944;2022-09-02T10:33:24;3.67;;;1.15;;
16246;SDS011;8231;50.866;7.944;2022-09-02T10:36:02;7.13;;;1.45;;
16246;SDS011;8231;50.866;7.944;2022-09-02T10:38:45;2.45;;;1.40;;
16246;SDS011;8231;50.866;7.944;2022-09-02T10:41:19;2.78;;;1.98;;
16246;SDS011;8231;50.866;7.944;2022-09-02T10:46:59;1.67;;;1.58;;
16246;SDS011;8231;50.866;7.944;2022-09-02T10:52:31;1.45;;;1.35;;
16246;SDS011;8231;50.866;7.944;2022-09-02T10:55:13;1.50;;;1.40;;
16246;SDS011;8231;50.866;7.944;2022-09-02T10:57:49;1.42;;;1.33;;
16246;SDS011;8231;50.866;7.944;2022-09-02T11:00:22;1.85;;;1.50;;
16246;SDS011;8231;50.866;7.944;2022-09-02T11:02:53;2.30;;;1.45;;
16246;SDS011;8231;50.866;7.944;2022-09-02T11:05:41;1.40;;;1.13;;
16246;SDS011;8231;50.866;7.944;2022-09-02T11:08:17;1.60;;;1.50;;
16246;SDS011;8231;50.866;7.944;2022-09-02T11:10:58;1.73;;;1.33;;
16246;SDS011;8231;50.866;7.944;2022-09-02T11:13:33;1.38;;;1.27;;
16246;SDS011;8231;50.866;7.944;2022-09-02T11:16:06;2.40;;;1.08;;
16246;SDS011;8231;50.866;7.944;2022-09-02T11:18:42;2.75;;;1.27;;
16246;SDS011;8231;50.866;7.944;2022-09-02T11:21:20;3.20;;;1.30;;
16246;SDS011;8231;50.866;7.944;2022-09-02T11:24:00;3.03;;;1.05;;
16246;SDS011;8231;50.866;7.944;2022-09-02T11:26:34;6.13;;;1.05;;
16246;SDS011;8231;50.866;7.944;2022-09-02T11:29:08;2.55;;;1.40;;
16246;SDS011;8231;50.866;7.944;2022-09-02T11:31:41;1.27;;;0.90;;
16246;SDS011;8231;50.866;7.944;2022-09-02T11:34:18;1.80;;;1.13;;
16246;SDS011;8231;50.866;7.944;2022-09-02T11:37:02;2.47;;;1.40;;
16246;SDS011;8231;50.866;7.944;2022-09-02T11:39:34;1.83;;;1.23;;
16246;SDS011;8231;50.866;7.944;2022-09-02T11:42:51;1.75;;;1.30;;
16246;SDS011;8231;50.866;7.944;2022-09-02T11:45:42;4.00;;;1.17;;
16246;SDS011;8231;50.866;7.944;2022-09-02T11:48:30;2.03;;;1.30;;
16246;SDS011;8231;50.866;7.944;2022-09-02T11:51:19;5.60;;;1.33;;
16246;SDS011;8231;50.866;7.944;2022-09-02T11:53:56;1.50;;;1.27;;
16246;SDS011;8231;50.866;7.944;2022-09-02T11:56:34;1.27;;;1.05;;
16246;SDS011;8231;50.866;7.944;2022-09-02T11:59:05;2.90;;;1.17;;
16246;SDS011;8231;50.866;7.944;2022-09-02T12:01:34;1.70;;;1.08;;
16246;SDS011;8231;50.866;7.944;2022-09-02T12:04:17;1.42;;;1.00;;
16246;SDS011;8231;50.866;7.944;2022-09-02T12:07:22;1.55;;;1.38;;
16246;SDS011;8231;50.866;7.944;2022-09-02T12:09:59;3.15;;;1.40;;
16246;SDS011;8231;50.866;7.944;2022-09-02T12:15:35;1.30;;;1.20;;
16246;SDS011;8231;50.866;7.944;2022-09-02T12:18:25;3.05;;;1.58;;
16246;SDS011;8231;50.866;7.944;2022-09-02T12:29:33;1.92;;;1.20;;
16246;SDS011;8231;50.866;7.944;2022-09-02T12:32:05;2.08;;;1.38;;
16246;SDS011;8231;50.866;7.944;2022-09-02T12:34:50;2.28;;;1.00;;
16246;SDS011;8231;50.866;7.944;2022-09-02T12:40:28;2.03;;;1.10;;
16246;SDS011;8231;50.866;7.944;2022-09-02T12:43:03;3.50;;;1.42;;
16246;SDS011;8231;50.866;7.944;2022-09-02T12:45:44;2.72;;;1.13;;
16246;SDS011;8231;50.866;7.944;2022-09-02T12:48:15;2.13;;;0.90;;
16246;SDS011;8231;50.866;7.944;2022-09-02T12:51:04;1.65;;;1.13;;
16246;SDS011;8231;50.866;7.944;2022-09-02T12:53:33;4.50;;;1.70;;
16246;SDS011;8231;50.866;7.944;2022-09-02T12:56:15;1.55;;;1.15;;
16246;SDS011;8231;50.866;7.944;2022-09-02T12:58:47;2.05;;;1.40;;
16246;SDS011;8231;50.866;7.944;2022-09-02T13:01:20;2.90;;;0.98;;
16246;SDS011;8231;50.866;7.944;2022-09-02T13:04:08;2.42;;;1.17;;
16246;SDS011;8231;50.866;7.944;2022-09-02T13:09:55;2.05;;;1.10;;
16246;SDS011;8231;50.866;7.944;2022-09-02T13:13:08;2.20;;;1.30;;
16246;SDS011;8231;50.866;7.944;2022-09-02T13:16:02;3.80;;;1.38;;
16246;SDS011;8231;50.866;7.944;2022-09-02T13:18:53;2.05;;;1.35;;
16246;SDS011;8231;50.866;7.944;2022-09-02T13:21:43;1.00;;;0.98;;
16246;SDS011;8231;50.866;7.944;2022-09-02T13:24:53;2.20;;;1.27;;
16246;SDS011;8231;50.866;7.944;2022-09-02T13:27:43;3.25;;;1.23;;
16246;SDS011;8231;50.866;7.944;2022-09-02T13:30:31;2.65;;;1.30;;
16246;SDS011;8231;50.866;7.944;2022-09-02T13:33:18;2.33;;;1.13;;
16246;SDS011;8231;50.866;7.944;2022-09-02T13:35:52;1.35;;;1.10;;
16246;SDS011;8231;50.866;7.944;2022-09-02T13:38:24;1.40;;;1.30;;
16246;SDS011;8231;50.866;7.944;2022-09-02T13:40:54;2.53;;;1.60;;
16246;SDS011;8231;50.866;7.944;2022-09-02T13:43:23;2.30;;;1.17;;
16246;SDS011;8231;50.866;7.944;2022-09-02T13:45:53;2.20;;;1.13;;
16246;SDS011;8231;50.866;7.944;2022-09-02T13:48:26;1.13;;;0.95;;
16246;SDS011;8231;50.866;7.944;2022-09-02T13:50:57;2.30;;;1.08;;
16246;SDS011;8231;50.866;7.944;2022-09-02T13:53:30;1.30;;;0.90;;
16246;SDS011;8231;50.866;7.944;2022-09-02T13:56:15;1.73;;;1.10;;
16246;SDS011;8231;50.866;7.944;2022-09-02T13:58:50;1.33;;;1.15;;
16246;SDS011;8231;50.866;7.944;2022-09-02T14:01:23;1.38;;;1.00;;
16246;SDS011;8231;50.866;7.944;2022-09-02T14:03:55;4.75;;;1.13;;
16246;SDS011;8231;50.866;7.944;2022-09-02T14:06:27;2.50;;;1.10;;
16246;SDS011;8231;50.866;7.944;2022-09-02T14:08:57;1.73;;;1.13;;
16246;SDS011;8231;50.866;7.944;2022-09-02T14:11:27;3.13;;;1.42;;
16246;SDS011;8231;50.866;7.944;2022-09-02T14:14:01;2.40;;;1.20;;
16246;SDS011;8231;50.866;7.944;2022-09-02T14:16:32;2.28;;;1.33;;
16246;SDS011;8231;50.866;7.944;2022-09-02T14:19:02;2.67;;;1.10;;
16246;SDS011;8231;50.866;7.944;2022-09-02T14:21:42;1.05;;;0.95;;
16246;SDS011;8231;50.866;7.944;2022-09-02T14:24:13;1.60;;;1.30;;
16246;SDS011;8231;50.866;7.944;2022-09-02T14:26:46;1.67;;;1.23;;
16246;SDS011;8231;50.866;7.944;2022-09-02T14:29:17;2.08;;;1.00;;
16246;SDS011;8231;50.866;7.944;2022-09-02T14:32:01;1.45;;;1.17;;
16246;SDS011;8231;50.866;7.944;2022-09-02T14:34:37;1.55;;;0.98;;
16246;SDS011;8231;50.866;7.944;2022-09-02T14:37:15;2.42;;;1.25;;
16246;SDS011;8231;50.866;7.944;2022-09-02T14:42:47;3.38;;;1.23;;
16246;SDS011;8231;50.866;7.944;2022-09-02T14:45:23;1.77;;;1.35;;
16246;SDS011;8231;50.866;7.944;2022-09-02T14:47:54;1.10;;;1.00;;
16246;SDS011;8231;50.866;7.944;2022-09-02T14:50:26;1.80;;;1.10;;
16246;SDS011;8231;50.866;7.944;2022-09-02T14:53:00;1.33;;;1.23;;
16246;SDS011;8231;50.866;7.944;2022-09-02T14:55:38;2.08;;;1.00;;
16246;SDS011;8231;50.866;7.944;2022-09-02T14:58:13;3.33;;;1.42;;
16246;SDS011;8231;50.866;7.944;2022-09-02T15:00:42;1.90;;;1.05;;
16246;SDS011;8231;50.866;7.944;2022-09-02T15:03:12;2.50;;;1.50;;
16246;SDS011;8231;50.866;7.944;2022-09-02T15:05:42;1.40;;;1.10;;
16246;SDS011;8231;50.866;7.944;2022-09-02T15:08:12;1.23;;;0.90;;
16246;SDS011;8231;50.866;7.944;2022-09-02T15:10:41;3.08;;;1.20;;
16246;SDS011;8231;50.866;7.944;2022-09-02T15:13:11;1.63;;;1.15;;
16246;SDS011;8231;50.866;7.944;2022-09-02T15:15:41;1.27;;;1.05;;
16246;SDS011;8231;50.866;7.944;2022-09-02T15:18:11;3.55;;;1.20;;
16246;SDS011;8231;50.866;7.944;2022-09-02T15:20:39;2.08;;;1.20;;
16246;SDS011;8231;50.866;7.944;2022-09-02T15:23:07;2.75;;;1.40;;
16246;SDS011;8231;50.866;7.944;2022-09-02T15:25:37;2.33;;;0.90;;
16246;SDS011;8231;50.866;7.944;2022-09-02T15:28:06;2.35;;;1.00;;
16246;SDS011;8231;50.866;7.944;2022-09-02T15:30:34;3.33;;;0.90;;
16246;SDS011;8231;50.866;7.944;2022-09-02T15:33:02;1.45;;;1.13;;
16246;SDS011;8231;50.866;7.944;2022-09-02T15:35:32;1.50;;;1.00;;
16246;SDS011;8231;50.866;7.944;2022-09-02T15:38:01;2.97;;;1.23;;
16246;SDS011;8231;50.866;7.944;2022-09-02T15:40:30;2.00;;;1.00;;
16246;SDS011;8231;50.866;7.944;2022-09-02T15:43:00;1.42;;;1.08;;
16246;SDS011;8231;50.866;7.944;2022-09-02T15:45:28;3.60;;;1.10;;
16246;SDS011;8231;50.866;7.944;2022-09-02T15:47:57;1.65;;;0.98;;
16246;SDS011;8231;50.866;7.944;2022-09-02T15:50:25;1.70;;;1.23;;
16246;SDS011;8231;50.866;7.944;2022-09-02T15:52:59;1.73;;;0.88;;
16246;SDS011;8231;50.866;7.944;2022-09-02T15:55:30;1.75;;;1.20;;
16246;SDS011;8231;50.866;7.944;2022-09-02T15:57:59;3.50;;;1.48;;
16246;SDS011;8231;50.866;7.944;2022-09-02T16:00:28;1.88;;;1.00;;
16246;SDS011;8231;50.866;7.944;2022-09-02T16:03:00;2.47;;;0.82;;
16246;SDS011;8231;50.866;7.944;2022-09-02T16:05:29;1.13;;;1.00;;